KEKN/EKN METAR and TAF weather

Enter ICAO airport designator
Station Type Date Time Source
KEKN METAR 2019/05/25 09:06 UTC NOAA

KEKN 250906Z AUTO 00000KT 1/4SM FG VV001 14/13 A3018 RMK AO2 T01440128 TSNO


Station Type Date Time Source
KEKN Decoded METAR 2019/05/25 09:06 UTC NOAA

JENNINGS RANDOLPH FIELD, WV, United States (KEKN) 38-53N 079-51W 603M
May 25, 2019 - 05:06 AM EDT / 2019.05.25 0906 UTC
Wind: Calm:0
Visibility: 1/4 mile(s):0
Sky conditions: obscured
Weather: fog
Temperature: 57.9 F (14.4 C)
Dew Point: 55.0 F (12.8 C)
Relative Humidity: 90%
Pressure (altimeter): 30.18 in. Hg (1022 hPa)
ob: KEKN 250906Z AUTO 00000KT 1/4SM FG VV001 14/13 A3018 RMK AO2 T01440128 TSNO
cycle: 9

Station Type Date Time Source
KEKN TAF 2019/05/25 09:59 UTC NOAA

TAF
AMD KEKN 250859Z 2509/2606 00000KT 1 1/2SM BR SCT002
FM251200 VRB03KT 4SM BR SCT001
FM251230 26006KT P6SM BKN070
FM252300 23005KT P6SM SCT250

Example: see airport list